Reading, Illinois
Current Conditions -  °F | °C
As of 9:15 AM on Saturday 22 Nov 2014 (Local Time) from KPNT Reporting Station
Overcast Overcast  
Wind Chill:   Ceiling: 1700
Heat Index:   Visibility: 10mi
Dew Point:   Wind: 14mph
Humidity: 84%   Direction: 200°SSW
Pressure: 30.03"   Gusts: NA
Location:  41.0465°N, 88.8725°W
Report Text: KPNT 221515Z AUTO 20012KT 10SM OVC017 07/05 A3003 RMK AO2 T00700045
Loading
Personal Weather Stations






























Interactive Weather Map New forecast layout! Learn more

10-Day Weather Forecast

Advertisements
Track Severe Weather on mobile